createdAt,value
2022-11-24T00:00:30.582Z,990.07
2022-11-24T00:01:30.562Z,990.11
2022-11-24T00:02:30.644Z,990.11
2022-11-24T00:03:30.563Z,990.10
2022-11-24T00:04:30.511Z,990.09
2022-11-24T00:05:30.518Z,990.06
2022-11-24T00:06:30.476Z,990.10
2022-11-24T00:07:30.574Z,990.10
2022-11-24T00:08:30.441Z,990.07
2022-11-24T00:09:30.419Z,990.06
2022-11-24T00:10:30.401Z,990.11
2022-11-24T00:11:30.408Z,990.14
2022-11-24T00:12:30.368Z,990.15
2022-11-24T00:13:30.347Z,990.15
2022-11-24T00:14:30.438Z,990.12
2022-11-24T00:15:30.313Z,990.15
2022-11-24T00:16:30.382Z,990.17
2022-11-24T00:17:30.286Z,990.16
2022-11-24T00:18:30.263Z,990.18
2022-11-24T00:19:30.237Z,990.18
2022-11-24T00:20:30.235Z,990.12
2022-11-24T00:21:30.210Z,990.16
2022-11-24T00:22:30.216Z,990.18
2022-11-24T00:23:30.172Z,990.14
2022-11-24T00:24:30.156Z,990.15
2022-11-24T00:25:30.159Z,990.17
2022-11-24T00:26:30.117Z,990.09
2022-11-24T00:27:30.098Z,990.14
2022-11-24T00:28:30.110Z,990.10
2022-11-24T00:29:30.060Z,990.10
2022-11-24T00:30:30.134Z,990.19
2022-11-24T00:31:30.078Z,990.19
2022-11-24T00:32:30.009Z,990.21
2022-11-24T00:33:30.014Z,990.22
2022-11-24T00:34:29.971Z,990.21
2022-11-24T00:35:29.950Z,990.30
2022-11-24T00:36:29.940Z,990.28
2022-11-24T00:37:29.917Z,990.28
2022-11-24T00:38:29.905Z,990.28
2022-11-24T00:39:29.904Z,990.29
2022-11-24T00:40:34.876Z,990.32
2022-11-24T00:41:29.848Z,990.33
2022-11-24T00:42:29.832Z,990.34
2022-11-24T00:43:29.810Z,990.34
2022-11-24T00:44:29.921Z,990.33
2022-11-24T00:45:29.771Z,990.33
2022-11-24T00:46:29.864Z,990.28
2022-11-24T00:47:29.756Z,990.30
2022-11-24T00:48:29.754Z,990.33
2022-11-24T00:49:29.697Z,990.33
2022-11-24T00:50:29.690Z,990.33
2022-11-24T00:51:29.666Z,990.31
2022-11-24T00:52:29.651Z,990.33
2022-11-24T00:53:29.655Z,990.43
2022-11-24T00:54:29.611Z,990.44
2022-11-24T00:55:29.601Z,990.44
2022-11-24T00:56:29.581Z,990.39
2022-11-24T00:57:29.559Z,990.43
2022-11-24T00:58:29.575Z,990.43
2022-11-24T00:59:29.520Z,990.45
2022-11-24T01:00:29.507Z,990.48
2022-11-24T01:01:29.529Z,990.47
2022-11-24T01:02:29.543Z,990.50
2022-11-24T01:03:29.497Z,990.50
2022-11-24T01:04:29.441Z,990.49
2022-11-24T01:05:29.413Z,990.49
2022-11-24T01:06:29.409Z,990.49
2022-11-24T01:07:29.435Z,990.48
2022-11-24T01:08:29.420Z,990.42
2022-11-24T01:09:29.342Z,990.53
2022-11-24T01:10:29.335Z,990.54
2022-11-24T01:11:29.313Z,990.51
2022-11-24T01:12:29.291Z,990.52
2022-11-24T01:13:29.275Z,990.52
2022-11-24T01:14:29.267Z,990.55
2022-11-24T01:15:29.282Z,990.58
2022-11-24T01:16:29.233Z,990.61
2022-11-24T01:17:29.199Z,990.60
2022-11-24T01:18:29.211Z,990.60
2022-11-24T01:19:29.168Z,990.58
2022-11-24T01:20:29.152Z,990.62
2022-11-24T01:21:29.129Z,990.60
2022-11-24T01:22:29.118Z,990.60
2022-11-24T01:23:29.092Z,990.60
2022-11-24T01:24:29.085Z,990.64
2022-11-24T01:25:29.060Z,990.60
2022-11-24T01:26:29.042Z,990.60
2022-11-24T01:27:29.020Z,990.60
2022-11-24T01:28:29.007Z,990.57
2022-11-24T01:29:29.023Z,990.61
2022-11-24T01:30:29.117Z,990.58
2022-11-24T01:31:29.021Z,990.61
2022-11-24T01:32:28.936Z,990.61
2022-11-24T01:33:28.911Z,990.66
2022-11-24T01:34:28.896Z,990.66
2022-11-24T01:35:28.913Z,990.67
2022-11-24T01:36:28.890Z,990.71
2022-11-24T01:37:28.839Z,990.70
2022-11-24T01:38:28.854Z,990.78
2022-11-24T01:39:28.808Z,990.78
2022-11-24T01:40:28.798Z,990.78
2022-11-24T01:41:28.768Z,990.81
2022-11-24T01:42:28.754Z,990.84
2022-11-24T01:43:28.734Z,990.79
2022-11-24T01:44:28.766Z,990.77
2022-11-24T01:45:28.697Z,990.81
2022-11-24T01:46:28.723Z,990.85
2022-11-24T01:47:28.662Z,990.87
2022-11-24T01:48:28.656Z,990.83
2022-11-24T01:49:28.631Z,990.89
2022-11-24T01:50:28.610Z,990.91
2022-11-24T01:51:28.596Z,990.89
2022-11-24T01:52:28.573Z,990.86
2022-11-24T01:53:28.553Z,990.92
2022-11-24T01:54:28.603Z,990.89
2022-11-24T01:55:28.519Z,990.92
2022-11-24T01:56:28.500Z,990.96
2022-11-24T01:57:28.505Z,990.93
2022-11-24T01:58:28.465Z,990.93
2022-11-24T01:59:28.444Z,990.91
2022-11-24T02:00:28.462Z,990.94
2022-11-24T02:01:28.484Z,990.96
2022-11-24T02:02:28.443Z,990.92
2022-11-24T02:03:28.388Z,990.97
2022-11-24T02:04:28.384Z,990.99
2022-11-24T02:05:28.341Z,990.99
2022-11-24T02:06:28.321Z,990.98
2022-11-24T02:07:28.328Z,991.02
2022-11-24T02:08:28.282Z,990.99
2022-11-24T02:09:28.267Z,990.98
2022-11-24T02:10:28.247Z,991.00
2022-11-24T02:11:28.238Z,991.02
2022-11-24T02:12:28.211Z,991.01
2022-11-24T02:13:28.189Z,991.05
2022-11-24T02:14:28.231Z,991.03
2022-11-24T02:15:28.150Z,990.96
2022-11-24T02:16:28.143Z,991.05
2022-11-24T02:17:28.120Z,991.08
2022-11-24T02:18:28.101Z,991.07
2022-11-24T02:19:28.098Z,991.13
2022-11-24T02:20:28.116Z,991.19
2022-11-24T02:21:28.072Z,991.18
2022-11-24T02:22:28.044Z,991.22
2022-11-24T02:23:28.009Z,991.23
2022-11-24T02:24:27.994Z,991.25
2022-11-24T02:25:27.969Z,991.20
2022-11-24T02:26:27.958Z,991.21
2022-11-24T02:27:27.938Z,991.23
2022-11-24T02:28:27.917Z,991.19
2022-11-24T02:29:27.960Z,991.21
2022-11-24T02:30:27.883Z,991.25
2022-11-24T02:31:27.899Z,991.22
2022-11-24T02:32:27.849Z,991.24
2022-11-24T02:33:27.824Z,991.23
2022-11-24T02:34:27.806Z,991.27
2022-11-24T02:35:27.813Z,991.26
2022-11-24T02:36:27.775Z,991.28
2022-11-24T02:37:27.752Z,991.27
2022-11-24T02:38:27.751Z,991.26
2022-11-24T02:39:27.745Z,991.30
2022-11-24T02:40:27.699Z,991.32
2022-11-24T02:41:27.679Z,991.33
2022-11-24T02:42:27.732Z,991.32
2022-11-24T02:43:27.637Z,991.33
2022-11-24T02:44:27.622Z,991.36
2022-11-24T02:45:27.601Z,991.38
2022-11-24T02:46:27.620Z,991.37
2022-11-24T02:47:27.570Z,991.38
2022-11-24T02:48:27.555Z,991.41
2022-11-24T02:49:27.530Z,991.41
2022-11-24T02:50:27.521Z,991.40
2022-11-24T02:51:27.493Z,991.43
2022-11-24T02:52:27.481Z,991.46
2022-11-24T02:53:27.479Z,991.50
2022-11-24T02:54:27.446Z,991.51
2022-11-24T02:55:27.417Z,991.53
2022-11-24T02:56:27.402Z,991.51
2022-11-24T02:57:27.403Z,991.55
2022-11-24T02:58:27.431Z,991.58
2022-11-24T02:59:27.356Z,991.58
2022-11-24T03:00:27.336Z,991.55
2022-11-24T03:01:27.373Z,991.58
2022-11-24T03:02:27.329Z,991.57
2022-11-24T03:03:27.278Z,991.54
2022-11-24T03:04:27.322Z,991.64
2022-11-24T03:05:27.237Z,991.61
2022-11-24T03:06:27.219Z,991.65
2022-11-24T03:07:27.234Z,991.59
2022-11-24T03:08:27.177Z,991.61
2022-11-24T03:09:27.157Z,991.59
2022-11-24T03:10:27.147Z,991.57
2022-11-24T03:11:27.119Z,991.58
2022-11-24T03:12:27.108Z,991.59
2022-11-24T03:13:27.104Z,991.64
2022-11-24T03:14:27.070Z,991.63
2022-11-24T03:15:27.075Z,991.65
2022-11-24T03:16:27.070Z,991.69
2022-11-24T03:17:27.015Z,991.66
2022-11-24T03:18:26.995Z,991.66
2022-11-24T03:19:26.992Z,991.70
2022-11-24T03:20:26.984Z,991.68
2022-11-24T03:21:27.001Z,991.68
2022-11-24T03:22:26.920Z,991.65
2022-11-24T03:23:26.898Z,991.70
2022-11-24T03:24:26.883Z,991.76
2022-11-24T03:25:26.863Z,991.78
2022-11-24T03:26:26.852Z,991.74
2022-11-24T03:27:26.830Z,991.78
2022-11-24T03:28:26.814Z,991.84
2022-11-24T03:29:26.787Z,991.84
2022-11-24T03:30:26.773Z,991.87
2022-11-24T03:31:26.813Z,991.85
2022-11-24T03:32:26.747Z,991.86
2022-11-24T03:33:26.711Z,991.86
2022-11-24T03:34:26.701Z,991.90
2022-11-24T03:35:26.694Z,991.88
2022-11-24T03:36:26.658Z,991.88
2022-11-24T03:37:26.705Z,991.90
2022-11-24T03:38:26.625Z,991.89
2022-11-24T03:39:26.615Z,991.91
2022-11-24T03:40:26.582Z,991.93
2022-11-24T03:41:26.562Z,991.93
2022-11-24T03:42:26.547Z,991.96
2022-11-24T03:43:26.551Z,991.95
2022-11-24T03:44:26.539Z,991.97
2022-11-24T03:45:56.514Z,991.98
2022-11-24T03:46:26.522Z,991.99
2022-11-24T03:47:26.450Z,991.98
2022-11-24T03:48:26.486Z,991.97
2022-11-24T03:49:26.413Z,991.95
2022-11-24T03:50:26.441Z,991.99
2022-11-24T03:51:26.386Z,991.96
2022-11-24T03:52:26.363Z,992.05
2022-11-24T03:53:26.339Z,992.02
2022-11-24T03:54:26.344Z,992.03
2022-11-24T03:55:26.302Z,992.06
2022-11-24T03:56:26.340Z,992.09
2022-11-24T03:57:26.273Z,992.09
2022-11-24T03:58:26.252Z,992.06
2022-11-24T03:59:26.226Z,992.08
2022-11-24T04:00:26.215Z,992.07
2022-11-24T04:01:26.227Z,992.12
2022-11-24T04:02:26.200Z,992.12
2022-11-24T04:03:26.150Z,992.09
2022-11-24T04:04:26.141Z,992.07
2022-11-24T04:05:26.114Z,992.12
2022-11-24T04:06:26.103Z,992.08
2022-11-24T04:07:26.193Z,992.11
2022-11-24T04:08:26.089Z,992.10
2022-11-24T04:09:26.039Z,992.08
2022-11-24T04:10:26.044Z,992.13
2022-11-24T04:11:26.019Z,992.12
2022-11-24T04:12:26.037Z,992.14
2022-11-24T04:13:25.989Z,992.16
2022-11-24T04:14:25.947Z,992.19
2022-11-24T04:15:25.933Z,992.18
2022-11-24T04:16:25.963Z,992.18
2022-11-24T04:17:25.894Z,992.16
2022-11-24T04:18:25.905Z,992.19
2022-11-24T04:19:25.857Z,992.16
2022-11-24T04:20:25.838Z,992.18
2022-11-24T04:21:25.814Z,992.17
2022-11-24T04:22:25.795Z,992.25
2022-11-24T04:23:25.784Z,992.23
2022-11-24T04:24:25.765Z,992.21
2022-11-24T04:25:25.739Z,992.24
2022-11-24T04:26:25.725Z,992.23
2022-11-24T04:27:25.708Z,992.23
2022-11-24T04:28:25.690Z,992.23
2022-11-24T04:29:25.686Z,992.24
2022-11-24T04:30:25.648Z,992.31
2022-11-24T04:31:25.708Z,992.28
2022-11-24T04:32:25.633Z,992.29
2022-11-24T04:33:25.598Z,992.23
2022-11-24T04:34:25.573Z,992.24
2022-11-24T04:35:25.557Z,992.30
2022-11-24T04:36:25.534Z,992.32
2022-11-24T04:37:25.568Z,992.27
2022-11-24T04:39:20.160Z,992.32
2022-11-24T04:39:28.321Z,992.33
2022-11-24T04:40:25.462Z,992.31
2022-11-24T04:41:25.455Z,992.37
2022-11-24T04:42:25.428Z,992.35
2022-11-24T04:43:25.433Z,992.36
2022-11-24T04:44:25.399Z,992.39
2022-11-24T04:45:25.369Z,992.39
2022-11-24T04:46:25.376Z,992.43
2022-11-24T04:47:25.341Z,992.41
2022-11-24T04:48:25.374Z,992.43
2022-11-24T04:49:25.294Z,992.39
2022-11-24T04:50:25.278Z,992.41
2022-11-24T04:51:25.283Z,992.40
2022-11-24T04:52:25.240Z,992.43
2022-11-24T04:53:25.220Z,992.44
2022-11-24T04:54:25.204Z,992.45
2022-11-24T04:55:25.193Z,992.43
2022-11-24T04:56:25.165Z,992.47
2022-11-24T04:57:25.151Z,992.43
2022-11-24T04:58:25.128Z,992.44
2022-11-24T04:59:25.162Z,992.48
2022-11-24T05:00:25.088Z,992.47
2022-11-24T05:01:25.097Z,992.50
2022-11-24T05:02:25.066Z,992.53
2022-11-24T05:03:25.038Z,992.52
2022-11-24T05:04:25.109Z,992.51
2022-11-24T05:05:25.068Z,992.52
2022-11-24T05:06:24.979Z,992.53
2022-11-24T05:07:25.016Z,992.53
2022-11-24T05:08:24.950Z,992.54
2022-11-24T05:09:36.882Z,992.59
2022-11-24T05:10:24.935Z,992.61
2022-11-24T05:11:24.889Z,992.63
2022-11-24T05:12:24.872Z,992.61
2022-11-24T05:13:24.852Z,992.65
2022-11-24T05:14:24.831Z,992.64
2022-11-24T05:15:24.815Z,992.69
2022-11-24T05:16:24.885Z,992.70
2022-11-24T05:17:24.777Z,992.74
2022-11-24T05:18:24.754Z,992.73
2022-11-24T05:19:28.422Z,992.70
2022-11-24T05:20:24.719Z,992.77
2022-11-24T05:21:24.701Z,992.76
2022-11-24T05:22:24.708Z,992.77
2022-11-24T05:23:24.667Z,992.81
2022-11-24T05:24:24.643Z,992.82
2022-11-24T05:25:24.634Z,992.81
2022-11-24T05:26:24.639Z,992.79
2022-11-24T05:27:24.599Z,992.82
2022-11-24T05:28:24.571Z,992.82
2022-11-24T05:29:24.581Z,992.80
2022-11-24T05:30:24.570Z,992.85
2022-11-24T05:31:24.560Z,992.83
2022-11-24T05:32:24.500Z,992.84
2022-11-24T05:33:24.547Z,992.84
2022-11-24T05:34:24.458Z,992.83
2022-11-24T05:35:24.444Z,992.87
2022-11-24T05:36:24.426Z,992.92
2022-11-24T05:37:24.409Z,992.88
2022-11-24T05:38:24.398Z,992.92
2022-11-24T05:39:24.398Z,992.90
2022-11-24T05:40:24.348Z,992.92
2022-11-24T05:41:24.348Z,992.95
2022-11-24T05:42:24.316Z,992.95
2022-11-24T05:43:24.403Z,992.97
2022-11-24T05:44:24.277Z,992.97
2022-11-24T05:45:24.275Z,992.98
2022-11-24T05:46:24.298Z,992.98
2022-11-24T05:47:24.222Z,992.95
2022-11-24T05:48:24.202Z,993.00
2022-11-24T05:49:24.215Z,993.03
2022-11-24T05:50:24.164Z,992.98
2022-11-24T05:51:24.165Z,992.99
2022-11-24T05:52:24.135Z,993.01
2022-11-24T05:53:24.116Z,993.00
2022-11-24T05:54:24.114Z,993.01
2022-11-24T05:55:24.080Z,992.99
2022-11-24T05:56:24.059Z,993.03
2022-11-24T05:57:24.038Z,993.05
2022-11-24T05:58:24.020Z,993.01
2022-11-24T05:59:24.054Z,992.98
2022-11-24T06:00:23.983Z,992.99
2022-11-24T06:01:24.030Z,993.02
2022-11-24T06:02:24.119Z,993.06
2022-11-24T06:03:23.928Z,993.07
2022-11-24T06:04:23.915Z,993.05
2022-11-24T06:05:23.901Z,993.07
2022-11-24T06:06:23.885Z,993.05
2022-11-24T06:07:23.899Z,993.04
2022-11-24T06:08:29.546Z,993.07
2022-11-24T06:09:23.825Z,993.08
2022-11-24T06:10:23.827Z,993.08
2022-11-24T06:11:23.780Z,993.14
2022-11-24T06:12:23.765Z,993.14
2022-11-24T06:13:23.778Z,993.12
2022-11-24T06:14:23.721Z,993.19
2022-11-24T06:15:23.751Z,993.18
2022-11-24T06:16:23.767Z,993.22
2022-11-24T06:17:23.673Z,993.16
2022-11-24T06:18:23.651Z,993.23
2022-11-24T06:19:23.637Z,993.24
2022-11-24T06:20:26.993Z,993.24
2022-11-24T06:21:23.620Z,993.23
2022-11-24T06:22:23.573Z,993.27
2022-11-24T06:23:23.560Z,993.29
2022-11-24T06:24:23.539Z,993.31
2022-11-24T06:25:23.521Z,993.29
2022-11-24T06:26:23.510Z,993.33
2022-11-24T06:27:23.528Z,993.35
2022-11-24T06:28:23.509Z,993.36
2022-11-24T06:29:23.450Z,993.30
2022-11-24T06:30:23.429Z,993.33
2022-11-24T06:31:23.546Z,993.40
2022-11-24T06:32:23.391Z,993.37
2022-11-24T06:33:23.376Z,993.35
2022-11-24T06:34:23.356Z,993.40
2022-11-24T06:35:23.354Z,993.40
2022-11-24T06:36:23.317Z,993.44
2022-11-24T06:37:23.301Z,993.42
2022-11-24T06:38:24.488Z,993.41
2022-11-24T06:39:23.271Z,993.42
2022-11-24T06:40:23.270Z,993.46
2022-11-24T06:41:23.229Z,993.47
2022-11-24T06:42:23.216Z,993.44
2022-11-24T06:43:23.189Z,993.49
2022-11-24T06:44:23.176Z,993.50
2022-11-24T06:45:23.183Z,993.53
2022-11-24T06:46:23.192Z,993.54
2022-11-24T06:47:23.120Z,993.57
2022-11-24T06:48:23.098Z,993.52
2022-11-24T06:49:23.078Z,993.55
2022-11-24T06:50:23.114Z,993.60
2022-11-24T06:51:23.046Z,993.57
2022-11-24T06:52:23.024Z,993.58
2022-11-24T06:53:23.008Z,993.58
2022-11-24T06:54:22.993Z,993.59
2022-11-24T06:55:22.972Z,993.62
2022-11-24T06:56:22.979Z,993.64
2022-11-24T06:57:22.938Z,993.65
2022-11-24T06:58:22.917Z,993.66
2022-11-24T06:59:22.929Z,993.67
2022-11-24T07:00:22.879Z,993.69
2022-11-24T07:01:22.886Z,993.70
2022-11-24T07:02:22.840Z,993.67
2022-11-24T07:03:22.911Z,993.70
2022-11-24T07:04:22.855Z,993.66
2022-11-24T07:05:22.824Z,993.70
2022-11-24T07:06:22.776Z,993.72
2022-11-24T07:07:22.818Z,993.71
2022-11-24T07:08:22.778Z,993.74
2022-11-24T07:09:22.735Z,993.77
2022-11-24T07:10:22.748Z,993.75
2022-11-24T07:11:22.681Z,993.73
2022-11-24T07:12:22.658Z,993.78
2022-11-24T07:13:22.642Z,993.78
2022-11-24T07:14:22.624Z,993.80
2022-11-24T07:15:22.608Z,993.79
2022-11-24T07:16:22.650Z,993.81
2022-11-24T07:17:22.587Z,993.84
2022-11-24T07:18:22.577Z,993.88
2022-11-24T07:19:25.054Z,993.87
2022-11-24T07:20:22.522Z,993.89
2022-11-24T07:21:22.500Z,993.88
2022-11-24T07:22:22.479Z,993.91
2022-11-24T07:23:22.502Z,993.93
2022-11-24T07:24:22.441Z,993.96
2022-11-24T07:25:22.455Z,993.94
2022-11-24T07:26:22.422Z,993.98
2022-11-24T07:27:22.410Z,994.00
2022-11-24T07:28:22.376Z,994.01
2022-11-24T07:29:22.353Z,994.01
2022-11-24T07:30:22.346Z,993.98
2022-11-24T07:31:22.369Z,994.02
2022-11-24T07:32:22.344Z,994.07
2022-11-24T07:33:22.339Z,994.11
2022-11-24T07:34:22.264Z,994.13
2022-11-24T07:35:22.251Z,994.13
2022-11-24T07:36:22.273Z,994.19
2022-11-24T07:37:24.515Z,994.15
2022-11-24T07:38:22.190Z,994.21
2022-11-24T07:39:22.242Z,994.22
2022-11-24T07:40:22.159Z,994.20
2022-11-24T07:41:22.153Z,994.27
2022-11-24T07:42:22.125Z,994.27
2022-11-24T07:43:22.109Z,994.28
2022-11-24T07:44:22.077Z,994.30
2022-11-24T07:45:22.095Z,994.30
2022-11-24T07:46:22.140Z,994.34
2022-11-24T07:47:22.032Z,994.35
2022-11-24T07:48:22.013Z,994.41
2022-11-24T07:49:21.997Z,994.41
2022-11-24T07:50:22.065Z,994.42
2022-11-24T07:51:21.963Z,994.45
2022-11-24T07:52:21.936Z,994.50
2022-11-24T07:53:21.923Z,994.50
2022-11-24T07:54:21.911Z,994.54
2022-11-24T07:55:21.900Z,994.50
2022-11-24T07:56:21.927Z,994.57
2022-11-24T07:57:21.884Z,994.53
2022-11-24T07:58:21.845Z,994.58
2022-11-24T07:59:21.820Z,994.56
2022-11-24T08:00:21.792Z,994.53
2022-11-24T08:01:21.928Z,994.54
2022-11-24T08:02:21.753Z,994.57
2022-11-24T08:03:21.796Z,994.55
2022-11-24T08:04:21.724Z,994.53
2022-11-24T08:05:21.701Z,994.64
2022-11-24T08:06:26.224Z,994.52
2022-11-24T08:07:21.728Z,994.59
2022-11-24T08:08:21.646Z,994.61
2022-11-24T08:09:21.629Z,994.61
2022-11-24T08:10:21.608Z,994.65
2022-11-24T08:11:21.594Z,994.63
2022-11-24T08:12:21.574Z,994.63
2022-11-24T08:13:21.596Z,994.64
2022-11-24T08:14:21.558Z,994.65
2022-11-24T08:15:21.521Z,994.65
2022-11-24T08:16:21.550Z,994.63
2022-11-24T08:17:21.510Z,994.65
2022-11-24T08:18:21.475Z,994.64
2022-11-24T08:19:21.452Z,994.69
2022-11-24T08:20:21.431Z,994.68
2022-11-24T08:21:21.410Z,994.67
2022-11-24T08:22:21.398Z,994.72
2022-11-24T08:23:21.446Z,994.74
2022-11-24T08:24:21.375Z,994.76
2022-11-24T08:25:21.344Z,994.75
2022-11-24T08:26:21.321Z,994.72
2022-11-24T08:27:21.310Z,994.68
2022-11-24T08:28:21.287Z,994.78
2022-11-24T08:29:21.285Z,994.75
2022-11-24T08:30:21.253Z,994.70
2022-11-24T08:31:21.331Z,994.73
2022-11-24T08:32:22.560Z,994.76
2022-11-24T08:33:21.202Z,994.75
2022-11-24T08:34:21.221Z,994.78
2022-11-24T08:35:21.161Z,994.80
2022-11-24T08:36:21.156Z,994.79
2022-11-24T08:37:21.129Z,994.77
2022-11-24T08:38:21.110Z,994.78
2022-11-24T08:39:21.104Z,994.75
2022-11-24T08:40:21.119Z,994.79
2022-11-24T08:41:21.062Z,994.85
2022-11-24T08:42:21.043Z,994.83
2022-11-24T08:43:21.021Z,994.82
2022-11-24T08:44:21.012Z,994.85
2022-11-24T08:45:23.072Z,994.88
2022-11-24T08:46:21.006Z,994.89
2022-11-24T08:47:20.950Z,994.88
2022-11-24T08:48:20.934Z,994.93
2022-11-24T08:49:20.913Z,994.93
2022-11-24T08:50:20.908Z,994.94
2022-11-24T08:51:20.939Z,994.94
2022-11-24T08:52:20.865Z,994.98
2022-11-24T08:53:20.849Z,994.99
2022-11-24T08:54:20.833Z,994.98
2022-11-24T08:55:20.811Z,995.01
2022-11-24T08:56:20.807Z,995.07
2022-11-24T08:57:22.055Z,995.06
2022-11-24T08:58:20.763Z,995.05
2022-11-24T08:59:20.849Z,995.03
2022-11-24T09:00:20.725Z,995.04
2022-11-24T09:01:20.779Z,995.07
2022-11-24T09:02:20.690Z,995.07
2022-11-24T09:03:20.683Z,995.10
2022-11-24T09:04:20.686Z,995.13
2022-11-24T09:05:50.290Z,995.07
2022-11-24T09:06:20.622Z,995.12
2022-11-24T09:07:20.703Z,995.13
2022-11-24T09:08:20.612Z,995.10
2022-11-24T09:09:20.564Z,995.08
2022-11-24T09:10:20.584Z,995.13
2022-11-24T09:11:20.546Z,995.09
2022-11-24T09:12:20.523Z,995.13
2022-11-24T09:13:20.498Z,995.07
2022-11-24T09:14:20.516Z,995.13
2022-11-24T09:15:20.490Z,995.08
2022-11-24T09:16:20.542Z,995.10
2022-11-24T09:17:20.454Z,995.07
2022-11-24T09:18:20.412Z,995.13
2022-11-24T09:19:20.398Z,995.12
2022-11-24T09:20:20.413Z,995.13
2022-11-24T09:21:20.371Z,995.22
2022-11-24T09:22:20.343Z,995.21
2022-11-24T09:23:20.338Z,995.19
2022-11-24T09:24:20.400Z,995.21
2022-11-24T09:25:20.299Z,995.26
2022-11-24T09:26:20.286Z,995.25
2022-11-24T09:27:20.263Z,995.25
2022-11-24T09:28:20.234Z,995.27
2022-11-24T09:29:20.224Z,995.30
2022-11-24T09:30:20.235Z,995.34
2022-11-24T09:31:20.224Z,995.26
2022-11-24T09:32:20.170Z,995.33
2022-11-24T09:33:20.282Z,995.31
2022-11-24T09:34:20.161Z,995.35
2022-11-24T09:35:20.217Z,995.37
2022-11-24T09:36:20.104Z,995.36
2022-11-24T09:37:20.087Z,995.41
2022-11-24T09:38:20.082Z,995.39
2022-11-24T09:39:20.195Z,995.42
2022-11-24T09:40:20.041Z,995.50
2022-11-24T09:41:20.014Z,995.47
2022-11-24T09:42:20.008Z,995.43
2022-11-24T09:43:19.985Z,995.50
2022-11-24T09:44:19.995Z,995.52
2022-11-24T09:45:35.452Z,995.52
2022-11-24T09:46:19.975Z,995.53
2022-11-24T09:47:19.941Z,995.57
2022-11-24T09:48:19.899Z,995.53
2022-11-24T09:49:19.905Z,995.62
2022-11-24T09:50:19.921Z,995.60
2022-11-24T09:51:19.841Z,995.63
2022-11-24T09:52:19.880Z,995.64
2022-11-24T09:53:19.817Z,995.65
2022-11-24T09:54:19.793Z,995.64
2022-11-24T09:55:19.788Z,995.62
2022-11-24T09:56:19.757Z,995.66
2022-11-24T09:57:19.738Z,995.65
2022-11-24T09:58:19.747Z,995.66
2022-11-24T09:59:19.705Z,995.62
2022-11-24T10:00:19.747Z,995.67
2022-11-24T10:01:19.705Z,995.65
2022-11-24T10:02:19.656Z,995.69
2022-11-24T10:03:19.663Z,995.61
2022-11-24T10:04:19.715Z,995.68
2022-11-24T10:05:19.600Z,995.70
2022-11-24T10:06:19.583Z,995.64
2022-11-24T10:07:19.610Z,995.64
2022-11-24T10:08:19.551Z,995.68
2022-11-24T10:09:19.530Z,995.68
2022-11-24T10:10:24.462Z,995.70
2022-11-24T10:11:19.496Z,995.75
2022-11-24T10:12:19.474Z,995.76
2022-11-24T10:13:19.455Z,995.75
2022-11-24T10:14:19.499Z,995.78
2022-11-24T10:15:19.426Z,995.74
2022-11-24T10:16:19.450Z,995.80
2022-11-24T10:17:19.409Z,995.78
2022-11-24T10:18:19.370Z,995.80
2022-11-24T10:19:19.354Z,995.80
2022-11-24T10:20:19.345Z,995.83
2022-11-24T10:21:19.328Z,995.83
2022-11-24T10:22:19.324Z,995.81
2022-11-24T10:23:19.283Z,995.82
2022-11-24T10:24:19.423Z,995.82
2022-11-24T10:25:19.319Z,995.90
2022-11-24T10:26:19.278Z,995.86
2022-11-24T10:27:19.229Z,995.83
2022-11-24T10:28:19.215Z,995.88
2022-11-24T10:29:19.189Z,995.87
2022-11-24T10:30:19.170Z,995.89
2022-11-24T10:31:19.206Z,995.88
2022-11-24T10:32:19.124Z,995.89
2022-11-24T10:33:19.110Z,995.92
2022-11-24T10:34:19.125Z,995.90
2022-11-24T10:35:19.080Z,995.93
2022-11-24T10:36:19.057Z,995.91
2022-11-24T10:37:19.060Z,995.95
2022-11-24T10:38:19.033Z,995.95
2022-11-24T10:39:19.000Z,995.94
2022-11-24T10:40:48.757Z,995.99
2022-11-24T10:41:18.970Z,996.02
2022-11-24T10:42:19.016Z,995.99
2022-11-24T10:43:18.974Z,996.00
2022-11-24T10:44:18.919Z,995.99
2022-11-24T10:45:18.892Z,995.96
2022-11-24T10:46:19.439Z,995.99
2022-11-24T10:47:18.856Z,996.03
2022-11-24T10:48:18.865Z,996.03
2022-11-24T10:49:18.832Z,996.06
2022-11-24T10:50:18.818Z,996.05
2022-11-24T10:51:18.968Z,996.05
2022-11-24T10:52:18.791Z,996.06
2022-11-24T10:53:18.777Z,996.04
2022-11-24T10:54:18.733Z,996.05
2022-11-24T10:55:20.696Z,996.05
2022-11-24T10:56:18.708Z,996.11
2022-11-24T10:57:18.683Z,996.06
2022-11-24T10:58:18.707Z,996.07
2022-11-24T10:59:18.643Z,996.10
2022-11-24T11:00:18.630Z,996.13
2022-11-24T11:01:18.689Z,996.12
2022-11-24T11:02:18.613Z,996.14
2022-11-24T11:03:18.579Z,996.10
2022-11-24T11:04:18.594Z,996.14
2022-11-24T11:05:18.546Z,996.12
2022-11-24T11:06:18.614Z,996.11
2022-11-24T11:07:18.652Z,996.08
2022-11-24T11:08:18.493Z,996.06
2022-11-24T11:09:18.532Z,996.11
2022-11-24T11:10:18.475Z,996.12
2022-11-24T11:11:18.428Z,996.12
2022-11-24T11:12:42.771Z,996.10
2022-11-24T11:13:18.393Z,996.11
2022-11-24T11:14:18.377Z,996.15
2022-11-24T11:15:18.361Z,996.18
2022-11-24T11:16:18.403Z,996.15
2022-11-24T11:17:18.319Z,996.17
2022-11-24T11:18:18.306Z,996.23
2022-11-24T11:19:47.252Z,996.18
2022-11-24T11:20:18.272Z,996.22
2022-11-24T11:21:18.250Z,996.26
2022-11-24T11:22:18.230Z,996.26
2022-11-24T11:23:19.078Z,996.26
2022-11-24T11:24:18.195Z,996.30
2022-11-24T11:25:18.197Z,996.28
2022-11-24T11:26:18.161Z,996.32
2022-11-24T11:27:18.192Z,996.32
2022-11-24T11:28:18.652Z,996.30
2022-11-24T11:31:20.565Z,996.37
2022-11-24T11:34:35.213Z,996.46
2022-11-24T11:35:17.996Z,996.46
2022-11-24T11:36:18.668Z,996.45
2022-11-24T11:37:17.965Z,996.46
2022-11-24T11:38:17.949Z,996.53
2022-11-24T11:39:17.933Z,996.58
2022-11-24T11:40:17.910Z,996.58
2022-11-24T11:41:17.891Z,996.55
2022-11-24T11:42:45.202Z,996.54
2022-11-24T11:43:18.628Z,996.53
2022-11-24T11:44:17.843Z,996.52
2022-11-24T11:45:17.901Z,996.55
2022-11-24T11:46:18.300Z,996.60
2022-11-24T11:47:17.785Z,996.53
2022-11-24T11:48:17.789Z,996.54
2022-11-24T11:49:17.751Z,996.55
2022-11-24T11:50:17.827Z,996.55
2022-11-24T11:51:25.012Z,996.63
2022-11-24T11:52:17.715Z,996.61
2022-11-24T11:53:17.692Z,996.59
2022-11-24T11:54:17.669Z,996.67
2022-11-24T11:55:17.650Z,996.67
2022-11-24T11:56:17.635Z,996.72
2022-11-24T11:57:17.646Z,996.74
2022-11-24T11:58:17.601Z,996.75
2022-11-24T11:59:17.577Z,996.76
2022-11-24T12:00:17.559Z,996.72
2022-11-24T12:01:17.536Z,996.77
2022-11-24T12:02:17.585Z,996.78
2022-11-24T12:03:17.678Z,996.75
2022-11-24T12:04:17.550Z,996.76
2022-11-24T12:05:17.469Z,996.77
2022-11-24T12:06:17.456Z,996.78
2022-11-24T12:07:17.493Z,996.80
2022-11-24T12:08:21.093Z,996.77
2022-11-24T12:09:21.377Z,996.82
2022-11-24T12:10:17.380Z,996.85
2022-11-24T12:11:17.374Z,996.91
2022-11-24T12:12:17.347Z,996.92
2022-11-24T12:13:17.354Z,996.90
2022-11-24T12:14:17.318Z,996.93
2022-11-24T12:15:17.289Z,996.94
2022-11-24T12:16:17.415Z,996.96
2022-11-24T12:17:17.254Z,996.95
2022-11-24T12:18:40.624Z,996.92
2022-11-24T12:19:17.217Z,996.95
2022-11-24T12:20:17.208Z,996.95
2022-11-24T12:21:22.903Z,996.91
2022-11-24T12:22:17.176Z,996.98
2022-11-24T12:23:17.180Z,996.93
2022-11-24T12:24:17.272Z,996.97
2022-11-24T12:25:17.116Z,996.99
2022-11-24T12:26:17.098Z,996.99
2022-11-24T12:27:22.465Z,997.02
2022-11-24T12:28:17.067Z,996.99
2022-11-24T12:29:17.105Z,997.00
2022-11-24T12:30:17.036Z,997.01
2022-11-24T12:31:17.079Z,997.00
2022-11-24T12:32:17.994Z,997.05